createdAt,value
2019-01-17T00:02:15.805Z,6.32
2019-01-17T00:06:42.498Z,6.29
2019-01-17T00:11:00.332Z,6.21
2019-01-17T00:15:25.676Z,6.23
2019-01-17T00:19:55.747Z,6.25
2019-01-17T00:24:19.401Z,6.27
2019-01-17T00:28:52.954Z,6.36
2019-01-17T00:33:17.743Z,6.32
2019-01-17T00:37:42.113Z,6.35
2019-01-17T00:42:09.279Z,6.31
2019-01-17T00:46:37.976Z,6.32
2019-01-17T00:51:06.945Z,6.41
2019-01-17T00:55:31.772Z,6.37
2019-01-17T01:00:13.029Z,6.42
2019-01-17T01:04:38.143Z,6.47
2019-01-17T01:09:02.468Z,6.39
2019-01-17T01:13:36.116Z,6.48
2019-01-17T01:18:04.702Z,6.46
2019-01-17T01:22:30.738Z,6.45
2019-01-17T01:26:59.548Z,6.42
2019-01-17T01:31:42.615Z,6.47
2019-01-17T01:36:01.823Z,6.49
2019-01-17T01:40:37.167Z,6.43
2019-01-17T01:44:57.820Z,6.47
2019-01-17T01:49:23.765Z,6.45
2019-01-17T01:53:30.735Z,6.50
2019-01-17T01:57:40.447Z,6.49
2019-01-17T02:01:47.497Z,6.50
2019-01-17T02:05:56.770Z,6.49
2019-01-17T02:10:03.893Z,6.47
2019-01-17T02:14:11.655Z,6.46
2019-01-17T02:18:18.524Z,6.43
2019-01-17T02:22:25.554Z,6.43
2019-01-17T02:26:33.049Z,6.36
2019-01-17T02:30:42.586Z,6.39
2019-01-17T02:34:49.697Z,6.38
2019-01-17T02:38:56.741Z,6.34
2019-01-17T02:43:03.788Z,6.38
2019-01-17T02:47:10.724Z,6.37
2019-01-17T02:51:17.762Z,6.39
2019-01-17T02:55:24.873Z,6.41
2019-01-17T02:59:31.978Z,6.40
2019-01-17T03:03:40.164Z,6.46
2019-01-17T03:07:47.091Z,6.40
2019-01-17T03:11:54.114Z,6.40
2019-01-17T03:16:01.171Z,6.37
2019-01-17T03:20:09.806Z,6.48
2019-01-17T03:24:16.754Z,6.43
2019-01-17T03:28:23.850Z,6.39
2019-01-17T03:32:30.785Z,6.30
2019-01-17T03:36:38.823Z,6.33
2019-01-17T03:40:46.530Z,6.37
2019-01-17T03:44:53.595Z,6.33
2019-01-17T03:49:03.480Z,6.34
2019-01-17T03:53:12.569Z,6.37
2019-01-17T03:57:19.527Z,6.33
2019-01-17T04:01:26.637Z,6.26
2019-01-17T04:05:33.650Z,6.24
2019-01-17T04:09:40.675Z,6.30
2019-01-17T04:13:49.166Z,6.23
2019-01-17T04:17:56.083Z,6.18
2019-01-17T04:22:06.388Z,6.20
2019-01-17T04:26:14.467Z,6.21
2019-01-17T04:30:21.434Z,6.15
2019-01-17T04:34:30.183Z,6.13
2019-01-17T04:38:37.155Z,6.01
2019-01-17T04:42:44.317Z,6.05
2019-01-17T04:46:52.152Z,6.02
2019-01-17T04:50:59.281Z,6.06
2019-01-17T04:55:10.483Z,5.98
2019-01-17T04:59:17.393Z,5.94
2019-01-17T05:03:24.301Z,5.95
2019-01-17T05:07:32.019Z,5.90
2019-01-17T05:11:41.115Z,5.99
2019-01-17T05:15:53.913Z,5.93
2019-01-17T05:20:00.619Z,5.87
2019-01-17T05:24:08.184Z,5.94
2019-01-17T05:28:15.646Z,5.98
2019-01-17T05:32:27.926Z,5.89
2019-01-17T05:36:35.631Z,5.89
2019-01-17T05:40:45.604Z,5.88
2019-01-17T05:44:52.836Z,5.88
2019-01-17T05:49:01.686Z,5.96
2019-01-17T05:53:09.147Z,5.82
2019-01-17T05:57:17.569Z,5.94
2019-01-17T06:01:24.617Z,5.85
2019-01-17T06:05:34.013Z,5.85
2019-01-17T06:09:41.391Z,5.90
2019-01-17T06:13:51.537Z,5.89
2019-01-17T06:17:59.006Z,5.84
2019-01-17T06:22:06.162Z,5.87
2019-01-17T06:26:16.590Z,5.87
2019-01-17T06:30:24.005Z,5.91
2019-01-17T06:34:33.265Z,5.89
2019-01-17T06:38:40.394Z,5.87
2019-01-17T06:42:47.910Z,5.95
2019-01-17T06:46:55.544Z,5.94
2019-01-17T06:51:02.821Z,5.94
2019-01-17T06:55:10.313Z,5.99
2019-01-17T06:59:20.667Z,6.00
2019-01-17T07:03:28.482Z,6.11
2019-01-17T07:07:39.021Z,6.01
2019-01-17T07:11:46.750Z,6.07
2019-01-17T07:16:10.055Z,6.00
2019-01-17T07:20:30.476Z,6.00
2019-01-17T07:24:28.644Z,6.06
2019-01-17T07:28:35.779Z,6.03
2019-01-17T07:32:43.011Z,6.07
2019-01-17T07:36:51.125Z,6.04
2019-01-17T07:40:59.255Z,6.07
2019-01-17T07:45:09.301Z,6.09
2019-01-17T07:49:20.133Z,6.19
2019-01-17T07:53:27.228Z,6.10
2019-01-17T07:57:34.522Z,6.18
2019-01-17T08:01:41.607Z,6.09
2019-01-17T08:05:49.170Z,6.24
2019-01-17T08:09:59.903Z,6.15
2019-01-17T08:14:08.149Z,6.22
2019-01-17T08:18:18.673Z,6.30
2019-01-17T08:22:23.693Z,6.41
2019-01-17T08:26:40.809Z,6.50
2019-01-17T08:30:50.499Z,6.51
2019-01-17T08:35:00.451Z,6.43
2019-01-17T08:39:10.523Z,6.50
2019-01-17T08:43:18.091Z,6.35
2019-01-17T08:47:25.071Z,6.46
2019-01-17T08:51:32.296Z,6.42
2019-01-17T08:55:40.968Z,6.33
2019-01-17T08:59:48.036Z,6.35
2019-01-17T09:03:55.201Z,6.38
2019-01-17T09:08:02.527Z,6.47
2019-01-17T09:12:10.940Z,6.58
2019-01-17T09:16:21.181Z,6.53
2019-01-17T09:20:41.179Z,6.65
2019-01-17T09:24:48.824Z,6.81
2019-01-17T09:28:59.016Z,6.93
2019-01-17T09:33:06.331Z,6.83
2019-01-17T09:37:13.454Z,6.81
2019-01-17T09:41:22.817Z,7.01
2019-01-17T09:45:31.692Z,7.11
2019-01-17T09:49:50.662Z,6.92
2019-01-17T09:54:00.615Z,7.01
2019-01-17T09:58:12.154Z,6.97
2019-01-17T10:02:19.230Z,7.08
2019-01-17T10:06:31.775Z,7.11
2019-01-17T10:10:41.249Z,6.99
2019-01-17T10:15:01.398Z,7.44
2019-01-17T10:20:19.015Z,7.29
2019-01-17T10:25:12.619Z,7.33
2019-01-17T10:30:26.378Z,6.99
2019-01-17T10:35:32.474Z,7.05
2019-01-17T10:40:48.162Z,7.11
2019-01-17T10:46:16.116Z,7.16
2019-01-17T10:51:18.093Z,7.74
2019-01-17T10:56:08.762Z,8.12
2019-01-17T11:01:13.009Z,7.71
2019-01-17T11:06:23.252Z,7.58
2019-01-17T11:11:16.012Z,7.52
2019-01-17T11:16:07.925Z,7.53
2019-01-17T11:21:08.124Z,7.42
2019-01-17T11:26:34.322Z,7.66
2019-01-17T11:31:36.637Z,8.42
2019-01-17T11:36:33.970Z,9.00
2019-01-17T11:41:44.386Z,8.64
2019-01-17T11:46:42.155Z,8.34
2019-01-17T11:51:52.738Z,8.34
2019-01-17T11:56:49.405Z,8.28
2019-01-17T12:01:59.882Z,8.14
2019-01-17T12:06:06.940Z,8.11
2019-01-17T12:10:14.165Z,8.13
2019-01-17T12:14:21.232Z,8.16
2019-01-17T12:18:28.309Z,8.17
2019-01-17T12:22:36.793Z,8.23
2019-01-17T12:26:47.481Z,8.15
2019-01-17T12:30:52.487Z,8.11
2019-01-17T12:35:00.933Z,7.97
2019-01-17T12:39:11.505Z,8.12
2019-01-17T12:43:18.523Z,8.07
2019-01-17T12:47:28.386Z,8.15
2019-01-17T12:51:35.751Z,9.55
2019-01-17T12:55:43.135Z,10.17
2019-01-17T12:59:50.636Z,10.12
2019-01-17T13:04:00.843Z,9.17
2019-01-17T13:08:11.604Z,9.33
2019-01-17T13:12:20.564Z,9.11
2019-01-17T13:16:28.121Z,8.71
2019-01-17T13:20:35.364Z,8.64
2019-01-17T13:24:44.201Z,8.36
2019-01-17T13:28:52.654Z,8.20
2019-01-17T13:33:03.871Z,8.13
2019-01-17T13:37:12.048Z,8.16
2019-01-17T13:41:19.472Z,8.01
2019-01-17T13:45:32.494Z,7.87
2019-01-17T13:49:43.698Z,7.85
2019-01-17T13:54:00.928Z,7.82
2019-01-17T13:58:09.520Z,7.90
2019-01-17T14:02:21.010Z,7.70
2019-01-17T14:06:36.513Z,7.71
2019-01-17T14:10:43.828Z,7.84
2019-01-17T14:14:51.140Z,7.90
2019-01-17T14:18:58.511Z,7.72
2019-01-17T14:23:09.125Z,7.70
2019-01-17T14:27:16.507Z,7.75
2019-01-17T14:31:25.052Z,7.64
2019-01-17T14:35:35.784Z,7.46
2019-01-17T14:39:50.179Z,7.29
2019-01-17T14:44:05.662Z,7.25
2019-01-17T14:48:15.126Z,7.18
2019-01-17T14:52:22.413Z,7.22
2019-01-17T14:56:29.636Z,7.19
2019-01-17T15:00:37.681Z,7.19
2019-01-17T15:04:44.880Z,7.16
2019-01-17T15:08:52.216Z,6.92
2019-01-17T15:13:02.837Z,5.14
2019-01-17T15:17:14.706Z,4.84
2019-01-17T15:21:22.103Z,5.02
2019-01-17T15:25:30.530Z,4.83
2019-01-17T15:29:38.307Z,4.91
2019-01-17T15:33:53.392Z,4.87
2019-01-17T15:38:09.838Z,4.94
2019-01-17T15:42:21.086Z,4.84
2019-01-17T15:46:38.580Z,4.82
2019-01-17T15:50:53.269Z,5.10
2019-01-17T15:55:04.819Z,4.99
2019-01-17T15:59:15.349Z,4.88
2019-01-17T16:03:43.389Z,4.82
2019-01-17T16:08:00.226Z,4.79
2019-01-17T16:12:39.759Z,4.67
2019-01-17T16:17:11.660Z,4.67
2019-01-17T16:21:22.720Z,4.62
2019-01-17T16:25:30.442Z,4.51
2019-01-17T16:29:50.601Z,4.51
2019-01-17T16:34:03.631Z,4.52
2019-01-17T16:38:11.061Z,4.56
2019-01-17T16:42:19.819Z,4.59
2019-01-17T16:46:28.500Z,4.55
2019-01-17T16:50:39.824Z,4.44
2019-01-17T16:54:49.455Z,4.48
2019-01-17T16:59:04.379Z,4.50
2019-01-17T17:03:16.752Z,4.58
2019-01-17T17:07:24.461Z,4.55
2019-01-17T17:11:31.961Z,4.58
2019-01-17T17:15:41.330Z,4.40
2019-01-17T17:19:50.901Z,4.46
2019-01-17T17:24:00.836Z,4.36
2019-01-17T17:28:10.915Z,4.41
2019-01-17T17:32:20.281Z,4.27
2019-01-17T17:36:28.825Z,4.34
2019-01-17T17:40:39.649Z,4.32
2019-01-17T17:44:48.011Z,4.19
2019-01-17T17:49:06.273Z,4.16
2019-01-17T17:53:14.074Z,4.26
2019-01-17T17:57:26.911Z,4.18
2019-01-17T18:01:43.528Z,4.15
2019-01-17T18:05:55.042Z,4.20
2019-01-17T18:10:04.492Z,4.05
2019-01-17T18:14:11.849Z,4.05
2019-01-17T18:18:19.211Z,4.08
2019-01-17T18:22:26.644Z,4.03
2019-01-17T18:26:34.839Z,3.89
2019-01-17T18:30:41.863Z,3.79
2019-01-17T18:34:49.033Z,3.84
2019-01-17T18:38:58.050Z,3.75
2019-01-17T18:43:05.154Z,3.64
2019-01-17T18:47:13.122Z,3.92
2019-01-17T18:51:20.109Z,3.60
2019-01-17T18:55:30.186Z,3.45
2019-01-17T18:59:38.643Z,3.43
2019-01-17T19:03:45.775Z,3.42
2019-01-17T19:07:59.114Z,3.39
2019-01-17T19:12:06.740Z,3.40
2019-01-17T19:16:14.254Z,3.41
2019-01-17T19:20:23.465Z,3.40
2019-01-17T19:24:33.526Z,3.33
2019-01-17T19:28:44.931Z,3.33
2019-01-17T19:32:56.439Z,3.33
2019-01-17T19:37:06.299Z,3.37
2019-01-17T19:41:16.986Z,3.43
2019-01-17T19:45:41.643Z,3.44
2019-01-17T19:49:52.572Z,3.58
2019-01-17T19:54:00.402Z,3.43
2019-01-17T19:58:07.939Z,3.37
2019-01-17T20:02:15.477Z,3.42
2019-01-17T20:06:24.149Z,3.36
2019-01-17T20:10:37.253Z,3.25
2019-01-17T20:15:32.777Z,3.12
2019-01-17T20:19:33.440Z,3.19
2019-01-17T20:23:41.364Z,3.04
2019-01-17T20:27:48.940Z,3.10
2019-01-17T20:31:59.875Z,3.10
2019-01-17T20:36:10.761Z,3.03
2019-01-17T20:40:31.460Z,2.97
2019-01-17T20:44:38.741Z,3.06
2019-01-17T20:48:48.186Z,3.15
2019-01-17T20:52:56.553Z,3.03
2019-01-17T20:57:09.800Z,3.17
2019-01-17T21:02:58.329Z,3.09
2019-01-17T21:08:07.468Z,2.94
2019-01-17T21:12:53.364Z,2.86
2019-01-17T21:17:05.236Z,3.08
2019-01-17T21:21:12.487Z,2.89
2019-01-17T21:25:20.988Z,2.90
2019-01-17T21:29:31.011Z,2.97
2019-01-17T21:33:38.912Z,3.04
2019-01-17T21:37:48.046Z,3.10
2019-01-17T21:41:56.626Z,3.17
2019-01-17T21:46:06.409Z,3.16
2019-01-17T21:50:18.375Z,3.17
2019-01-17T21:54:25.612Z,3.13
2019-01-17T21:58:34.485Z,3.02
2019-01-17T22:02:44.229Z,3.10
2019-01-17T22:06:51.929Z,3.10
2019-01-17T22:11:02.404Z,3.13
2019-01-17T22:15:19.329Z,3.18
2019-01-17T22:19:28.892Z,3.23
2019-01-17T22:23:40.113Z,3.23
2019-01-17T22:27:48.530Z,3.32
2019-01-17T22:31:55.784Z,3.41
2019-01-17T22:36:03.215Z,3.32
2019-01-17T22:40:16.131Z,3.25
2019-01-17T22:44:25.141Z,3.30
2019-01-17T22:48:32.274Z,3.29
2019-01-17T22:52:51.388Z,3.26
2019-01-17T22:57:01.592Z,3.37
2019-01-17T23:01:28.151Z,3.23
2019-01-17T23:05:35.216Z,3.35
2019-01-17T23:09:45.960Z,3.46
2019-01-17T23:13:57.796Z,3.54
2019-01-17T23:18:06.155Z,3.54
2019-01-17T23:22:15.061Z,3.56
2019-01-17T23:26:27.232Z,3.55
2019-01-17T23:30:35.192Z,3.43
2019-01-17T23:34:45.305Z,3.39
2019-01-17T23:38:52.638Z,3.43
2019-01-17T23:42:59.697Z,3.51
2019-01-17T23:47:10.544Z,3.34
2019-01-17T23:51:22.058Z,3.31
2019-01-17T23:55:29.044Z,2.92
2019-01-17T23:59:44.598Z,2.97
